Thursday, July 19, 2018, 5:45 AM GMT
Back to Local

CYUL, Montreal / Pierre Elliot Trudeau International Airport, Que

Location: , , Canada Lat: 45.467
Local Time: 5:45 AM GMT ( 5:45 GMT) Lon: -73.75
Time Zone: GMT Elev: 101 ft

Show me the last for .
Show Decoded

2018-07-19 05:00 METAR CYUL 190500Z 31005KT 15SM SKC 17/09 A3001 RMK SLP165 DENSITY ALT 300FT =
2018-07-19 04:00 METAR CYUL 190400Z 31006KT 15SM SKC 18/09 A3001 RMK SLP163 DENSITY ALT 400FT =
2018-07-19 03:00 METAR CYUL 190300Z 30005KT 15SM SKC 19/08 A3000 RMK SLP162 DENSITY ALT 500FT =
2018-07-19 02:00 METAR CYUL 190200Z 32005KT 15SM FEW250 20/08 A3000 RMK CI1 CI TR SLP159 DENSITY
                 ALT 700FT =
2018-07-19 01:00 METAR CYUL 190100Z 30007KT 15SM FEW120 21/07 A2998 RMK AC1 AC TR SLP154 DENSITY
                 ALT 800FT =
2018-07-19 00:00 METAR CYUL 190000Z 29008G15KT 30SM FEW090 22/06 A2996 RMK AC1 AC TR SLP148
                 DENSITY ALT 1000FT =
2018-07-18 23:00 METAR CYUL 182300Z 30011KT 15SM FEW065 23/06 A2995 RMK CF1 CF TR SLP145 DENSITY
                 ALT 1100FT =
2018-07-18 22:00 METAR CYUL 182200Z 28008G16KT 30SM FEW050 FEW240 24/06 A2995 RMK CF1CI1 CF TR CI
                 TR SLP143 DENSITY ALT 1200FT =
2018-07-18 21:00 METAR CYUL 182100Z CCA 29013KT 30SM FEW065 FEW240 24/06 A2995 RMK CF1CI1 CF TR
                 CI TR SLP143 DENSITY ALT 1200FT =
2018-07-18 20:00 METAR CYUL 182000Z 27008G20KT 250V340 30SM FEW050 24/06 A2995 RMK CF1 CF TR
                 SLP145 DENSITY ALT 1100FT =
2018-07-18 19:00 METAR CYUL 181900Z 32007G19KT 260V030 30SM SKC 23/05 A2996 RMK SLP148 DENSITY
                 ALT 1100FT =
2018-07-18 18:00 METAR CYUL 181800Z 26007G16KT 250V310 30SM SKC 22/05 A2997 RMK SLP150 DENSITY
                 ALT 900FT =
2018-07-18 17:00 METAR CYUL 181700Z 32006KT 280V020 30SM SKC 21/05 A2998 RMK SLP154 DENSITY ALT
                 900FT =
2018-07-18 16:22 METAR CYUL 181622Z 28009G15KT 200V300 30SM FEW060 21/05 A2998 RMK CF1 CF TR
                 WSHFT 1607 SLP155 DENSITY ALT 800FT =
2018-07-18 16:00 METAR CYUL 181600Z 31007G15KT 280V360 30SM FEW050 21/07 A2999 RMK CF1 CF TR
                 SLP157 DENSITY ALT 800FT =
2018-07-18 15:00 METAR CYUL 181500Z 29006KT 250V350 30SM FEW055 20/06 A3000 RMK CF1 CF TR SLP159
                 DENSITY ALT 700FT =
2018-07-18 14:00 METAR CYUL 181400Z 30007KT 230V020 30SM FEW050 19/07 A3000 RMK CF1 CF TR SLP159
                 DENSITY ALT 600FT =
2018-07-18 13:00 METAR CYUL 181300Z 33009KT 30SM FEW045 18/07 A2999 RMK CU1 CU TR SLP158 DENSITY
                 ALT 400FT =
2018-07-18 12:00 METAR CYUL 181200Z 31007KT 30SM FEW040 FEW240 17/08 A3000 RMK CF1CI1 CF TR CI TR
                 SLP159 DENSITY ALT 400FT =
2018-07-18 11:00 METAR CYUL 181100Z 31006KT 30SM FEW030 FEW240 16/08 A2998 RMK CF1CI1 CF TR CI TR
                 SLP154 DENSITY ALT 300FT =
2018-07-18 10:00 METAR CYUL 181000Z 29004KT 30SM FEW240 15/09 A2996 RMK CI1 CI TR SLP147 =
2018-07-18 09:00 METAR CYUL 180900Z 31005KT 15SM FEW240 15/09 A2993 RMK CI1 CI TR SLP138 DENSITY
                 ALT 200FT =
2018-07-18 08:00 METAR CYUL 180800Z 33006KT 15SM SKC 16/08 A2992 RMK SLP133 DENSITY ALT 300FT =
2018-07-18 07:00 METAR CYUL 180700Z 35006KT 15SM SKC 17/08 A2991 RMK SLP128 DENSITY ALT 400FT =
2018-07-18 06:00 METAR CYUL 180600Z 36013G19KT 15SM SKC 18/08 A2989 RMK SLP121 DENSITY ALT 600FT
                 =

Support USWX by starting your Amazon purchase here.